Time;durP1;ratioP1;P1;durP2;ratioP2;P2;SDS_P1;SDS_P2;PMS_P1;PMS_P2;Temp;Humidity;BMP_temperature;BMP_pressure;BME280_temperature;BME280_humidity;BME280_pressure;Samples;Min_cycle;Max_cycle;Signal;HPM_P1;HPM_P2
2023/08/09 00:00:20;;;;;;;3.40;1.40;;;;;;;16.88;81.45;98643.72;5056999;28;41973;-81
2023/08/09 00:02:49;;;;;;;1.50;1.30;;;;;;;16.94;82.09;98654.84;5074827;28;40928;-81
2023/08/09 00:05:16;;;;;;;2.10;1.07;;;;;;;16.93;80.89;98653.16;5074512;28;41857;-81
2023/08/09 00:07:44;;;;;;;1.43;1.10;;;;;;;16.92;81.57;98656.81;5071642;28;43274;-79
2023/08/09 00:10:11;;;;;;;2.57;1.50;;;;;;;16.88;82.21;98646.41;5056064;28;41142;-81
2023/08/09 00:12:39;;;;;;;2.23;1.37;;;;;;;16.84;81.95;98650.31;5072656;28;39032;-81
2023/08/09 00:15:07;;;;;;;1.30;1.20;;;;;;;16.78;81.63;98636.69;5074065;28;42085;-80
2023/08/09 00:17:36;;;;;;;1.50;1.40;;;;;;;16.74;82.10;98622.75;5073698;28;42961;-82
2023/08/09 00:20:08;;;;;;;1.73;1.60;;;;;;;16.79;82.24;98639.22;5072742;28;42634;-81
2023/08/09 00:22:35;;;;;;;1.83;1.30;;;;;;;16.79;82.82;98628.53;5071242;28;39960;-81
2023/08/09 00:25:03;;;;;;;2.73;1.40;;;;;;;16.78;83.67;98625.97;5073916;28;42757;-81
2023/08/09 00:27:30;;;;;;;2.33;1.77;;;;;;;16.77;83.24;98627.81;5072215;28;43069;-78
2023/08/09 00:29:58;;;;;;;2.50;1.40;;;;;;;16.73;83.09;98610.34;5072401;28;42758;-79
2023/08/09 00:32:25;;;;;;;2.67;1.50;;;;;;;16.48;84.06;98574.28;5055536;28;40130;-79
2023/08/09 00:34:53;;;;;;;3.80;1.80;;;;;;;16.72;85.38;98605.97;5072647;28;41820;-80
2023/08/09 00:37:22;;;;;;;1.70;1.60;;;;;;;16.68;84.78;98598.41;5055516;28;41697;-78
2023/08/09 00:39:49;;;;;;;1.43;1.33;;;;;;;16.56;85.05;98588.78;5072510;28;43121;-79
2023/08/09 00:42:17;;;;;;;1.90;1.43;;;;;;;16.35;85.13;98548.81;5073232;28;40089;-78
2023/08/09 00:44:44;;;;;;;2.30;1.80;;;;;;;16.63;84.64;98595.28;5056499;28;43316;-81
2023/08/09 00:47:12;;;;;;;1.40;1.30;;;;;;;16.47;84.96;98561.91;5056303;28;42160;-80
2023/08/09 00:49:40;;;;;;;1.43;1.27;;;;;;;16.59;85.03;98602.72;5056524;28;41262;-82
2023/08/09 00:52:08;;;;;;;1.50;1.30;;;;;;;16.50;84.91;98584.84;5072409;28;40882;-82
2023/08/09 00:54:39;;;;;;;1.10;1.00;;;;;;;16.56;86.11;98591.47;5056159;28;40509;-82
2023/08/09 00:57:07;;;;;;;2.13;1.30;;;;;;;16.55;85.33;98585.28;5055714;28;41727;-81
2023/08/09 00:59:35;;;;;;;1.37;1.27;;;;;;;16.55;85.66;98590.63;5056541;28;41297;-79
2023/08/09 01:02:02;;;;;;;1.90;1.60;;;;;;;16.55;85.53;98581.75;5055800;28;39733;-83
2023/08/09 01:04:30;;;;;;;1.80;1.60;;;;;;;16.53;86.51;98581.91;5056022;28;41977;-80
2023/08/09 01:07:07;;;;;;;1.30;1.20;;;;;;;16.53;87.31;98584.56;5072514;28;42826;-81
2023/08/09 01:09:42;;;;;;;1.97;1.37;;;;;;;16.54;86.25;98591.59;5055274;28;41307;-83
2023/08/09 01:12:13;;;;;;;2.47;1.30;;;;;;;16.46;86.11;98572.72;5054045;28;38839;-80
2023/08/09 01:14:44;;;;;;;1.70;1.60;;;;;;;16.58;85.77;98587.66;5072066;28;41076;-82
2023/08/09 01:17:13;;;;;;;1.53;1.40;;;;;;;16.60;85.38;98583.00;5069771;28;42648;-83
2023/08/09 01:19:43;;;;;;;1.33;1.23;;;;;;;16.59;84.84;98588.50;5072114;28;42937;-80
2023/08/09 01:22:15;;;;;;;2.53;1.37;;;;;;;16.62;85.67;98575.72;5071603;28;39953;-79
2023/08/09 01:24:45;;;;;;;1.93;1.70;;;;;;;16.59;86.11;98577.81;5071919;28;40765;-81
2023/08/09 01:27:13;;;;;;;1.70;1.20;;;;;;;16.51;85.60;98570.50;5071627;28;42454;-80
2023/08/09 01:29:41;;;;;;;1.30;1.20;;;;;;;16.60;85.97;98593.72;5054444;28;42084;-79
2023/08/09 01:32:08;;;;;;;1.57;1.40;;;;;;;16.56;86.78;98578.94;5072435;28;40722;-76
2023/08/09 01:34:37;;;;;;;2.43;1.63;;;;;;;16.52;86.54;98565.00;5071640;28;40906;-81
2023/08/09 01:37:12;;;;;;;2.07;1.40;;;;;;;16.52;86.33;98562.34;5070981;28;43766;-80
2023/08/09 01:39:42;;;;;;;1.90;1.43;;;;;;;16.55;86.45;98563.03;5068282;28;43168;-81
2023/08/09 01:42:12;;;;;;;2.53;1.60;;;;;;;16.55;86.48;98566.56;5055239;28;39245;-79
2023/08/09 01:44:41;;;;;;;1.43;1.30;;;;;;;16.55;86.61;98566.56;5072788;28;41442;-80
2023/08/09 01:47:09;;;;;;;1.63;1.50;;;;;;;16.51;87.50;98552.63;5072044;28;42770;-79
2023/08/09 01:49:37;;;;;;;1.87;1.20;;;;;;;16.57;87.72;98555.75;5072357;28;43374;-82
2023/08/09 01:52:05;;;;;;;2.07;1.80;;;;;;;16.57;87.72;98563.75;5071432;28;39086;-79
2023/08/09 01:54:32;;;;;;;2.57;1.77;;;;;;;16.55;87.30;98561.22;5072286;28;41871;-78
2023/08/09 01:57:01;;;;;;;2.90;1.93;;;;;;;16.52;87.36;98548.13;5054735;28;42903;-79
2023/08/09 01:59:31;;;;;;;1.60;1.40;;;;;;;16.57;87.02;98561.91;5055130;28;42285;-79
2023/08/09 02:01:59;;;;;;;1.40;1.30;;;;;;;16.60;86.65;98561.63;5054326;28;40518;-83
2023/08/09 02:04:27;;;;;;;2.20;1.57;;;;;;;16.62;87.83;98558.81;5071616;28;41562;-81
2023/08/09 02:06:54;;;;;;;1.97;1.37;;;;;;;16.64;87.48;98555.06;5054796;28;41776;-81
2023/08/09 02:09:22;;;;;;;3.00;1.73;;;;;;;16.63;87.76;98549.84;5071503;28;42152;-80
2023/08/09 02:11:49;;;;;;;1.80;1.70;;;;;;;16.58;88.49;98539.53;5070194;28;39868;-81
2023/08/09 02:14:16;;;;;;;2.17;1.50;;;;;;;16.52;88.58;98545.44;5053011;28;43304;-81
2023/08/09 02:16:46;;;;;;;1.87;1.77;;;;;;;16.48;89.30;98536.00;5053570;28;41775;-81
2023/08/09 02:19:14;;;;;;;2.43;1.27;;;;;;;16.45;89.24;98534.47;5053991;28;42708;-80
2023/08/09 02:21:42;;;;;;;2.00;1.50;;;;;;;16.43;89.56;98538.28;5053788;28;39797;-79
2023/08/09 02:24:10;;;;;;;1.87;1.40;;;;;;;16.37;90.86;98538.81;5053866;28;41400;-82
2023/08/09 02:26:38;;;;;;;1.70;1.60;;;;;;;16.35;90.44;98533.63;5070101;28;41990;-81
2023/08/09 02:29:06;;;;;;;2.83;1.70;;;;;;;16.37;89.92;98538.81;5071981;28;42402;-80
2023/08/09 02:31:34;;;;;;;1.70;1.60;;;;;;;16.37;90.48;98546.84;5053578;28;40224;-81
2023/08/09 02:34:03;;;;;;;2.63;1.50;;;;;;;16.40;90.51;98543.91;5053666;28;44014;-79
2023/08/09 02:36:31;;;;;;;1.97;1.53;;;;;;;16.40;90.29;98550.09;5070449;28;42724;-80
2023/08/09 02:38:59;;;;;;;1.70;1.60;;;;;;;16.40;89.85;98544.75;5070692;28;42857;-78
2023/08/09 02:41:26;;;;;;;3.10;1.67;;;;;;;16.40;89.70;98550.09;5071258;28;40319;-82
2023/08/09 02:43:54;;;;;;;3.07;1.63;;;;;;;16.31;90.41;98537.56;5071645;28;41743;-82
2023/08/09 02:46:22;;;;;;;1.43;1.33;;;;;;;16.38;90.52;98553.88;5054577;28;43197;-78
2023/08/09 02:48:49;;;;;;;1.23;1.13;;;;;;;16.37;90.46;98546.84;5071666;28;40894;-82
2023/08/09 02:51:18;;;;;;;3.37;1.63;;;;;;;16.39;90.49;98555.56;5055062;28;40067;-83
2023/08/09 02:54:01;;;;;;;1.40;1.30;;;;;;;16.41;90.12;98556.28;5054512;28;40662;-80
2023/08/09 02:56:30;;;;;;;3.33;1.50;;;;;;;16.44;89.67;98550.66;5069300;28;41786;-79
2023/08/09 02:58:59;;;;;;;1.60;1.20;;;;;;;16.45;89.61;98546.97;5054322;28;41020;-82
2023/08/09 03:01:26;;;;;;;2.77;1.53;;;;;;;16.45;89.71;98552.31;5072238;28;39891;-80
2023/08/09 03:03:56;;;;;;;1.53;1.43;;;;;;;16.44;89.46;98550.66;5054346;28;40928;-82
2023/08/09 03:06:25;;;;;;;1.30;1.20;;;;;;;16.36;89.30;98542.47;5071044;28;42469;-80
2023/08/09 03:08:53;;;;;;;1.83;1.33;;;;;;;16.48;89.63;98557.41;5053553;28;41947;-80
2023/08/09 03:11:23;;;;;;;1.30;1.20;;;;;;;16.47;89.34;98563.72;5069625;28;39946;-78
2023/08/09 03:13:52;;;;;;;2.20;1.33;;;;;;;16.52;89.25;98553.47;5070218;28;41459;-82
2023/08/09 03:16:20;;;;;;;1.60;1.20;;;;;;;16.43;89.11;98538.28;5070079;28;42801;-83
2023/08/09 03:18:49;;;;;;;1.93;1.30;;;;;;;16.56;88.98;98559.41;5053272;28;40961;-82
2023/08/09 03:21:17;;;;;;;1.57;1.17;;;;;;;16.56;88.88;98552.22;5070277;28;40021;-79
2023/08/09 03:23:46;;;;;;;1.60;1.20;;;;;;;16.57;89.36;98547.72;5070000;28;41713;-82
2023/08/09 03:26:13;;;;;;;1.23;1.13;;;;;;;16.48;89.15;98536.00;5071176;28;43676;-83
2023/08/09 03:28:42;;;;;;;1.30;1.20;;;;;;;16.40;89.09;98514.50;5073301;28;42224;-82
2023/08/09 03:31:11;;;;;;;1.70;1.60;;;;;;;16.60;89.38;98542.91;5056715;28;38868;-80
2023/08/09 03:33:40;;;;;;;2.43;1.50;;;;;;;16.56;89.66;98548.69;5073297;28;42795;-79
2023/08/09 03:36:07;;;;;;;1.63;1.53;;;;;;;16.47;89.66;98531.66;5056410;28;42771;-79
2023/08/09 03:38:35;;;;;;;1.40;1.30;;;;;;;16.51;91.13;98533.06;5073212;28;42351;-82
2023/08/09 03:41:03;;;;;;;1.53;1.43;;;;;;;16.50;90.92;98547.41;5057096;28;38874;-82
2023/08/09 03:43:32;;;;;;;1.47;1.30;;;;;;;16.47;90.48;98535.16;5057326;28;41075;-81
2023/08/09 03:46:00;;;;;;;1.37;1.27;;;;;;;16.52;90.61;98537.44;5057666;28;43001;-80
2023/08/09 03:48:28;;;;;;;3.37;1.43;;;;;;;16.43;91.71;98540.97;5057447;28;42351;-83
2023/08/09 03:50:56;;;;;;;1.63;1.30;;;;;;;16.52;91.14;98564.16;5057539;28;38854;-79
2023/08/09 03:53:23;;;;;;;1.60;1.50;;;;;;;16.46;91.33;98544.16;5073792;28;42457;-79
2023/08/09 03:55:51;;;;;;;1.50;1.40;;;;;;;16.41;91.18;98540.25;5057036;28;41741;-80
2023/08/09 03:58:20;;;;;;;1.40;1.30;;;;;;;16.55;91.43;98547.84;5057214;28;42332;-79
2023/08/09 04:00:47;;;;;;;1.80;1.43;;;;;;;16.54;91.17;98535.47;5057700;28;39707;-83
2023/08/09 04:03:14;;;;;;;1.40;1.07;;;;;;;16.51;92.72;98531.25;5074269;28;42688;-81
2023/08/09 04:05:42;;;;;;;1.97;1.50;;;;;;;16.40;91.90;98533.22;5057248;28;41796;-82
2023/08/09 04:08:10;;;;;;;1.50;1.40;;;;;;;16.53;91.68;98555.16;5073557;28;41310;-80
2023/08/09 04:10:38;;;;;;;1.53;1.43;;;;;;;16.55;91.77;98547.84;5071673;28;39115;-79
2023/08/09 04:13:05;;;;;;;2.07;1.50;;;;;;;16.57;91.48;98558.41;5055900;28;43200;-83
2023/08/09 04:15:34;;;;;;;1.47;1.30;;;;;;;16.58;91.71;98555.56;5073280;28;42922;-80
2023/08/09 04:18:01;;;;;;;1.43;1.17;;;;;;;16.60;92.03;98553.59;5055121;28;41310;-79
2023/08/09 04:20:31;;;;;;;1.40;1.30;;;;;;;16.61;91.88;98551.78;5072702;28;40813;-81
2023/08/09 04:23:00;;;;;;;3.40;1.50;;;;;;;16.60;92.51;98556.28;5055238;28;40759;-80
2023/08/09 04:25:27;;;;;;;1.97;1.50;;;;;;;16.61;92.40;98551.78;5073566;28;42868;-80
2023/08/09 04:27:55;;;;;;;1.50;1.37;;;;;;;16.60;93.04;98561.63;5073246;28;43245;-79
2023/08/09 04:30:24;;;;;;;1.80;1.70;;;;;;;16.58;93.53;98566.25;5073248;28;41142;-82
2023/08/09 04:32:53;;;;;;;1.50;1.40;;;;;;;16.60;93.14;98572.31;5071851;28;41839;-80
2023/08/09 04:35:20;;;;;;;1.67;1.57;;;;;;;16.64;93.00;98573.75;5072206;28;43077;-79
2023/08/09 04:37:48;;;;;;;2.30;1.47;;;;;;;16.63;92.74;98577.41;5054454;28;41408;-82
2023/08/09 04:40:15;;;;;;;1.77;1.33;;;;;;;16.58;92.81;98563.59;5055550;28;39061;-84
2023/08/09 04:42:45;;;;;;;1.73;1.60;;;;;;;16.64;93.13;98578.28;5073735;28;42073;-82
2023/08/09 04:45:13;;;;;;;1.40;1.30;;;;;;;16.67;93.47;98586.88;5073049;28;42877;-79
2023/08/09 04:47:42;;;;;;;1.37;1.20;;;;;;;16.70;92.81;98588.38;5073988;28;43149;-80
2023/08/09 04:50:12;;;;;;;1.50;1.30;;;;;;;16.73;92.66;98575.59;5072952;28;40061;-82
2023/08/09 04:52:39;;;;;;;1.33;1.23;;;;;;;16.76;93.04;98577.13;5055328;28;41024;-85
2023/08/09 04:55:07;;;;;;;1.80;1.43;;;;;;;16.45;92.74;98528.28;5072884;28;41780;-81
2023/08/09 04:57:35;;;;;;;1.70;1.60;;;;;;;16.79;93.55;98588.41;5055705;28;41331;-83
2023/08/09 05:00:04;;;;;;;1.60;1.50;;;;;;;16.79;92.95;98583.06;5073600;28;40710;-83
2023/08/09 05:02:36;;;;;;;1.83;1.63;;;;;;;16.80;93.13;98590.09;5073765;28;41839;-81
2023/08/09 05:05:04;;;;;;;3.20;1.30;;;;;;;16.72;93.21;98565.88;5056090;28;42972;-83
2023/08/09 05:07:33;;;;;;;1.00;1.00;;;;;;;16.86;93.51;98591.34;5073551;28;42111;-83
2023/08/09 05:10:01;;;;;;;1.73;1.63;;;;;;;16.88;93.09;98592.06;5071197;28;41902;-82
2023/08/09 05:12:29;;;;;;;2.17;1.50;;;;;;;16.80;93.74;98582.06;5071275;28;41915;-79
2023/08/09 05:14:57;;;;;;;2.60;1.43;;;;;;;16.92;93.57;98603.31;5071481;28;43752;-82
2023/08/09 05:17:24;;;;;;;2.30;1.40;;;;;;;16.92;93.72;98603.31;5054506;28;41126;-86
2023/08/09 05:19:52;;;;;;;1.10;1.00;;;;;;;16.94;93.41;98601.34;5054895;28;39137;-84
2023/08/09 05:22:19;;;;;;;1.50;1.40;;;;;;;16.98;93.31;98608.09;5054405;28;42177;-80
2023/08/09 05:24:48;;;;;;;1.60;1.50;;;;;;;17.00;93.41;98606.13;5072943;28;43825;-83
2023/08/09 05:27:16;;;;;;;1.50;1.40;;;;;;;17.03;93.04;98605.84;5054459;28;41769;-84
2023/08/09 05:29:43;;;;;;;2.10;1.90;;;;;;;17.00;93.02;98585.56;5054788;28;39839;-83
2023/08/09 05:32:11;;;;;;;1.73;1.50;;;;;;;17.18;92.92;98610.59;5072293;28;42965;-82
2023/08/09 05:34:39;;;;;;;1.43;1.33;;;;;;;17.24;92.45;98614.53;5054407;28;41593;-80
2023/08/09 05:37:06;;;;;;;1.93;1.33;;;;;;;17.28;92.35;98610.59;5070369;28;42432;-82
2023/08/09 05:39:34;;;;;;;1.47;1.37;;;;;;;17.30;92.45;98613.97;5054800;28;39329;-83
2023/08/09 05:42:04;;;;;;;1.63;1.20;;;;;;;17.35;92.11;98605.50;5071629;28;43123;-81
2023/08/09 05:44:31;;;;;;;2.47;1.60;;;;;;;17.32;92.30;98600.41;5055331;28;41816;-83
2023/08/09 05:46:59;;;;;;;1.60;1.30;;;;;;;17.43;91.66;98608.31;5073034;28;41244;-82
2023/08/09 05:49:26;;;;;;;1.40;1.30;;;;;;;17.39;91.42;98590.84;5072393;28;39129;-85
2023/08/09 05:51:55;;;;;;;1.80;1.67;;;;;;;17.45;91.40;98596.44;5056172;28;40587;-87
2023/08/09 05:54:22;;;;;;;3.23;1.20;;;;;;;17.50;91.12;98596.88;5071872;28;41510;-85
2023/08/09 05:56:51;;;;;;;1.40;1.30;;;;;;;17.54;91.03;98594.75;5070339;28;41947;-87
2023/08/09 05:59:20;;;;;;;1.80;1.27;;;;;;;17.63;90.90;98611.75;5092640;28;40559;-88
2023/08/09 06:01:48;;;;;;;1.47;1.20;;;;;;;17.68;91.45;98618.38;5074836;28;41934;-83
2023/08/09 06:04:16;;;;;;;1.30;1.20;;;;;;;17.60;91.04;98600.34;5075779;28;41938;-87
2023/08/09 06:06:43;;;;;;;4.67;1.67;;;;;;;17.65;90.66;98601.78;5091910;28;41934;-85
2023/08/09 06:09:11;;;;;;;1.43;1.33;;;;;;;17.71;90.10;98610.06;5091674;28;40867;-86
2023/08/09 06:11:38;;;;;;;2.03;1.40;;;;;;;17.78;89.88;98608.50;5090905;28;42864;-85
2023/08/09 06:14:04;;;;;;;1.70;1.30;;;;;;;17.68;89.62;98574.72;5074281;28;43214;-87
2023/08/09 06:16:35;;;;;;;1.93;1.23;;;;;;;17.98;89.41;98625.31;5073421;28;41757;-87
2023/08/09 06:19:03;;;;;;;1.27;1.10;;;;;;;18.04;88.94;98621.22;5074861;28;39796;-84
2023/08/09 06:21:30;;;;;;;1.53;1.43;;;;;;;18.02;88.89;98605.28;5073228;28;41023;-85
2023/08/09 06:24:09;;;;;;;1.97;1.43;;;;;;;18.15;88.44;98621.88;5074192;28;43381;-86
2023/08/09 06:26:36;;;;;;;2.87;1.73;;;;;;;17.90;87.98;98568.97;5087566;28;42466;-89
2023/08/09 06:29:04;;;;;;;1.60;1.50;;;;;;;18.10;87.84;98601.84;5074279;28;39272;-87
2023/08/09 06:31:33;;;;;;;2.50;1.37;;;;;;;18.29;87.44;98637.44;5107145;28;41362;-92
2023/08/09 06:34:04;;;;;;;1.43;1.10;;;;;;;18.11;87.33;98620.47;5107858;28;42105;-86
2023/08/09 06:36:32;;;;;;;1.30;1.13;;;;;;;17.94;87.12;98581.06;5073893;28;41395;-87
2023/08/09 06:39:05;;;;;;;1.70;1.37;;;;;;;18.31;86.97;98645.31;5073689;28;39221;-90
2023/08/09 06:41:32;;;;;;;1.63;1.30;;;;;;;18.20;86.84;98597.28;5074564;28;41291;-88
2023/08/09 06:44:00;;;;;;;1.77;1.37;;;;;;;18.64;86.44;98651.94;5092129;28;42782;-88
2023/08/09 06:46:27;;;;;;;1.30;1.17;;;;;;;18.64;86.62;98647.41;5074226;28;42504;-85
2023/08/09 06:48:56;;;;;;;1.90;1.70;;;;;;;18.70;85.95;98651.31;5092832;28;41232;-88
2023/08/09 06:51:24;;;;;;;1.50;1.20;;;;;;;18.91;85.59;98657.25;5075072;28;41805;-85
2023/08/09 06:53:51;;;;;;;1.23;1.13;;;;;;;19.04;85.53;98654.16;5075224;28;41395;-85
2023/08/09 06:56:19;;;;;;;1.50;1.17;;;;;;;19.07;84.87;98618.13;5075924;28;42187;-91
2023/08/09 06:58:46;;;;;;;2.20;1.43;;;;;;;19.27;84.63;98641.97;5092205;28;40669;-88
2023/08/09 07:01:14;;;;;;;1.20;1.10;;;;;;;19.24;83.97;98647.63;5091268;28;42330;-86
2023/08/09 07:03:41;;;;;;;1.30;1.20;;;;;;;19.24;83.92;98654.84;5074376;28;41861;-90
2023/08/09 07:06:10;;;;;;;1.50;1.30;;;;;;;19.28;83.18;98669.66;5075168;28;42566;-89
2023/08/09 07:08:38;;;;;;;2.90;1.30;;;;;;;19.13;83.60;98676.56;5107721;28;39063;-86
2023/08/09 07:11:06;;;;;;;2.00;1.23;;;;;;;18.97;83.71;98667.34;5072324;28;41931;-89
2023/08/09 07:13:33;;;;;;;1.07;0.97;;;;;;;18.82;83.89;98652.78;5072671;28;42529;-90
2023/08/09 07:16:01;;;;;;;1.07;1.03;;;;;;;18.95;83.85;98674.72;5107424;28;41609;-87
2023/08/09 07:18:28;;;;;;;1.20;1.10;;;;;;;18.92;84.22;98675.00;5072883;28;38875;-89
2023/08/09 07:20:57;;;;;;;1.73;1.30;;;;;;;19.09;83.60;98675.19;5073258;28;40989;-88
2023/08/09 07:23:26;;;;;;;2.00;1.00;;;;;;;19.38;83.20;98686.53;5072456;28;42650;-89
2023/08/09 07:25:54;;;;;;;1.47;1.37;;;;;;;19.44;82.60;98647.44;5072736;28;40751;-89
2023/08/09 07:28:21;;;;;;;1.33;1.23;;;;;;;19.84;81.62;98655.78;5072465;28;38949;-88
2023/08/09 07:30:52;;;;;;;1.40;1.03;;;;;;;20.31;80.60;98684.94;5073046;28;41876;-87
2023/08/09 07:33:21;;;;;;;1.00;0.90;;;;;;;20.34;79.11;98680.06;5107093;28;41439;-89
2023/08/09 07:35:49;;;;;;;2.00;1.10;;;;;;;20.31;78.56;98666.94;5072928;28;41709;-90
2023/08/09 07:38:17;;;;;;;1.33;1.23;;;;;;;20.35;78.63;98681.81;5072868;28;39518;-89
2023/08/09 07:40:46;;;;;;;3.07;1.70;;;;;;;20.18;78.83;98681.84;5073820;28;42512;-87
2023/08/09 07:43:13;;;;;;;1.20;1.10;;;;;;;19.94;79.84;98688.78;5107565;28;41799;-84
2023/08/09 07:45:45;;;;;;;2.73;1.43;;;;;;;19.76;80.81;98703.28;5074290;28;42343;-89
2023/08/09 07:48:15;;;;;;;1.10;0.90;;;;;;;19.51;81.66;98697.72;5074195;28;40487;-89
2023/08/09 07:50:42;;;;;;;2.73;0.90;;;;;;;19.44;82.50;98712.72;5074403;28;41858;-82
2023/08/09 07:53:09;;;;;;;1.30;1.20;;;;;;;19.24;83.31;98711.22;5089887;28;42982;-84
2023/08/09 07:55:37;;;;;;;1.30;1.20;;;;;;;19.14;84.06;98716.69;5073305;28;41427;-83
2023/08/09 07:58:06;;;;;;;1.07;0.97;;;;;;;19.12;84.27;98718.66;5073316;28;38636;-83
2023/08/09 08:00:34;;;;;;;1.40;1.27;;;;;;;19.05;84.40;98706.84;5090537;28;41622;-86
2023/08/09 08:03:02;;;;;;;1.67;1.40;;;;;;;19.18;84.91;98722.56;5090347;28;41835;-81
2023/08/09 08:05:29;;;;;;;1.77;1.37;;;;;;;19.16;85.06;98713.84;5073575;28;42314;-85
2023/08/09 08:07:57;;;;;;;1.63;1.20;;;;;;;19.30;84.80;98729.41;5073297;28;40281;-89
2023/08/09 08:10:24;;;;;;;1.80;1.40;;;;;;;19.23;84.87;98706.84;5071391;28;40583;-88
2023/08/09 08:12:52;;;;;;;1.00;0.90;;;;;;;19.45;85.43;98708.22;5072872;28;41842;-85
2023/08/09 08:15:20;;;;;;;1.00;1.00;;;;;;;19.63;84.82;98711.75;5075452;28;42828;-81
2023/08/09 08:17:51;;;;;;;1.03;1.00;;;;;;;20.08;84.19;98719.59;5068924;28;39483;-86
2023/08/09 08:20:20;;;;;;;3.33;1.57;;;;;;;20.11;81.67;98715.75;5092684;28;41076;-88
2023/08/09 08:22:49;;;;;;;2.07;1.40;;;;;;;20.19;81.77;98740.00;5075275;28;42397;-84
2023/08/09 08:25:19;;;;;;;1.13;1.03;;;;;;;20.01;82.16;98732.00;5075383;28;41230;-85
2023/08/09 08:27:49;;;;;;;1.40;1.27;;;;;;;19.95;81.91;98741.53;5092343;28;41144;-85
2023/08/09 08:30:18;;;;;;;2.70;1.17;;;;;;;19.99;82.44;98750.13;5075657;28;41939;-84
2023/08/09 08:32:49;;;;;;;2.83;1.20;;;;;;;19.95;82.78;98751.44;5092007;28;43326;-85
2023/08/09 08:35:20;;;;;;;1.00;1.00;;;;;;;19.65;83.01;98764.34;5092259;28;42110;-86
2023/08/09 08:37:49;;;;;;;0.60;0.60;;;;;;;19.37;81.28;98786.88;5075523;28;39314;-83
2023/08/09 08:40:19;;;;;;;0.50;0.50;;;;;;;19.08;80.19;98791.59;5075877;28;41966;-85
2023/08/09 08:42:47;;;;;;;1.50;0.40;;;;;;;18.88;80.88;98791.72;5110059;28;42543;-82
2023/08/09 08:45:15;;;;;;;0.50;0.50;;;;;;;18.76;80.88;98792.06;5076519;28;41034;-82
2023/08/09 08:47:45;;;;;;;0.60;0.47;;;;;;;18.63;80.92;98787.06;5093113;28;39322;-83
2023/08/09 08:50:17;;;;;;;1.17;0.50;;;;;;;18.56;81.32;98784.06;5093036;28;43296;-83
2023/08/09 08:52:47;;;;;;;0.40;0.30;;;;;;;18.43;81.60;98774.66;5076003;28;41988;-83
2023/08/09 08:55:15;;;;;;;0.60;0.50;;;;;;;18.36;81.46;98795.03;5093276;28;42298;-85
2023/08/09 08:57:45;;;;;;;0.43;0.43;;;;;;;18.23;82.22;98788.16;5093642;28;40104;-80
2023/08/09 09:00:16;;;;;;;0.23;0.23;;;;;;;18.24;82.17;98789.84;5093893;28;42825;-81
2023/08/09 09:02:44;;;;;;;0.50;0.30;;;;;;;18.30;82.42;98805.34;5092742;28;41431;-83
2023/08/09 09:05:13;;;;;;;0.30;0.30;;;;;;;18.33;82.44;98803.34;5092461;28;42003;-81
2023/08/09 09:07:45;;;;;;;0.30;0.30;;;;;;;18.24;82.05;98792.53;5126720;27;39936;-81
2023/08/09 09:10:13;;;;;;;0.40;0.30;;;;;;;18.35;82.56;98807.59;5074837;28;41895;-81
2023/08/09 09:12:41;;;;;;;0.30;0.30;;;;;;;18.49;82.05;98817.00;5091524;28;43062;-80
2023/08/09 09:15:09;;;;;;;0.40;0.40;;;;;;;18.67;82.41;98809.06;5092805;28;42258;-83
2023/08/09 09:17:39;;;;;;;0.37;0.37;;;;;;;18.69;81.80;98790.97;5091476;28;41054;-84
2023/08/09 09:20:13;;;;;;;0.30;0.30;;;;;;;18.91;81.60;98820.09;5092748;28;41781;-84
2023/08/09 09:22:43;;;;;;;0.20;0.20;;;;;;;18.91;81.39;98829.00;5091512;28;42861;-82
2023/08/09 09:25:11;;;;;;;0.27;0.27;;;;;;;18.86;81.50;98817.00;5091076;28;41197;-83
2023/08/09 09:27:41;;;;;;;0.20;0.20;;;;;;;18.78;81.84;98823.13;5091290;28;39089;-85
2023/08/09 09:30:13;;;;;;;1.17;0.37;;;;;;;18.77;81.46;98832.16;5092955;28;42251;-85
2023/08/09 09:32:54;;;;;;;0.30;0.30;;;;;;;18.78;81.48;98817.78;5074568;28;41886;-84
2023/08/09 09:35:22;;;;;;;0.20;0.20;;;;;;;18.77;81.35;98815.22;5108091;28;43313;-80
2023/08/09 09:37:52;;;;;;;0.60;0.60;;;;;;;18.69;81.31;98810.59;5091133;28;40230;-83
2023/08/09 09:40:23;;;;;;;0.30;0.30;;;;;;;18.91;81.42;98826.31;5091794;28;41679;-87
2023/08/09 09:42:52;;;;;;;0.20;0.20;;;;;;;19.09;81.35;98817.44;5089456;28;42634;-85
2023/08/09 09:45:23;;;;;;;0.30;0.30;;;;;;;19.28;80.90;98830.75;5093204;28;42432;-85
2023/08/09 09:47:52;;;;;;;1.13;0.30;;;;;;;19.35;80.39;98832.69;5092374;28;39233;-83
2023/08/09 09:50:22;;;;;;;0.40;0.30;;;;;;;19.50;79.93;98835.72;5093612;28;43123;-86
2023/08/09 09:52:52;;;;;;;0.30;0.30;;;;;;;19.46;79.58;98815.50;5074435;28;45113;-82
2023/08/09 09:55:25;;;;;;;0.33;0.33;;;;;;;19.66;79.98;98830.50;5092201;28;41589;-87
2023/08/09 09:57:53;;;;;;;0.30;0.30;;;;;;;19.78;79.45;98838.34;5075144;28;38932;-86
2023/08/09 10:00:22;;;;;;;0.40;0.40;;;;;;;19.86;78.81;98833.03;5109274;28;41204;-82
2023/08/09 10:02:51;;;;;;;0.40;0.40;;;;;;;19.98;78.77;98823.72;5074618;28;43262;-86
2023/08/09 10:05:22;;;;;;;0.30;0.27;;;;;;;20.27;77.53;98834.19;5091636;28;43233;-85
2023/08/09 10:07:52;;;;;;;0.70;0.30;;;;;;;20.55;76.92;98833.03;5075088;28;40167;-89
2023/08/09 10:10:19;;;;;;;0.83;0.40;;;;;;;20.48;76.28;98782.72;5073115;28;41402;-86
2023/08/09 10:12:52;;;;;;;0.40;0.40;;;;;;;20.86;76.09;98829.84;5073095;28;42068;-84
2023/08/09 10:15:23;;;;;;;0.20;0.20;;;;;;;20.98;75.55;98834.78;5073524;28;41402;-82
2023/08/09 10:17:54;;;;;;;1.00;0.40;;;;;;;21.16;74.54;98831.97;5090604;28;38816;-84
2023/08/09 10:20:24;;;;;;;0.30;0.30;;;;;;;21.48;73.85;98836.66;5073867;28;42751;-84
2023/08/09 10:22:56;;;;;;;0.30;0.30;;;;;;;21.71;73.65;98837.69;5086714;28;42933;-81
2023/08/09 10:25:42;;;;;;;0.33;0.33;;;;;;;21.73;72.96;98846.47;5073605;28;42170;-88
2023/08/09 10:28:10;;;;;;;1.23;0.40;;;;;;;21.56;72.39;98828.56;5090240;28;38650;-84
2023/08/09 10:30:46;;;;;;;0.20;0.20;;;;;;;21.63;72.30;98840.38;5073366;28;42006;-83
2023/08/09 10:33:18;;;;;;;1.27;0.50;;;;;;;21.65;72.12;98842.88;5086987;28;43792;-85
2023/08/09 10:35:49;;;;;;;0.47;0.43;;;;;;;21.73;71.98;98835.66;5072766;28;42342;-87
2023/08/09 10:38:20;;;;;;;0.77;0.40;;;;;;;22.16;71.69;98841.75;5090310;28;38930;-88
2023/08/09 10:40:52;;;;;;;0.20;0.20;;;;;;;22.48;70.97;98825.53;5074244;28;41425;-84
2023/08/09 10:43:21;;;;;;;0.20;0.20;;;;;;;22.77;70.00;98807.91;5074593;28;42369;-89
2023/08/09 10:45:51;;;;;;;0.53;0.33;;;;;;;23.17;68.53;98821.25;5074783;28;41233;-86
2023/08/09 10:48:23;;;;;;;0.60;0.20;;;;;;;23.41;68.64;98841.06;5107794;28;42761;-86
2023/08/09 10:51:02;;;;;;;0.57;0.40;;;;;;;23.67;67.13;98849.72;5075171;28;41155;-87
2023/08/09 10:53:31;;;;;;;0.30;0.30;;;;;;;23.92;66.44;98853.94;5073414;28;44587;-85
2023/08/09 10:56:00;;;;;;;0.40;0.40;;;;;;;24.01;65.16;98857.41;5075396;28;20218;-89
2023/08/09 10:58:29;;;;;;;0.60;0.40;;;;;;;23.93;64.58;98858.31;5073978;28;40205;-88
2023/08/09 11:00:57;;;;;;;0.50;0.50;;;;;;;23.77;64.54;98807.03;5072207;28;41325;-82
2023/08/09 11:03:25;;;;;;;0.87;0.40;;;;;;;24.49;64.34;98864.28;5073809;28;42877;-89
2023/08/09 11:05:53;;;;;;;0.57;0.50;;;;;;;24.87;63.53;98848.81;5091737;28;41254;-80
2023/08/09 11:08:21;;;;;;;0.77;0.57;;;;;;;25.23;60.58;98858.91;5073262;28;39656;-84
2023/08/09 11:10:52;;;;;;;0.87;0.50;;;;;;;25.15;60.19;98802.09;5070413;28;42891;-86
2023/08/09 11:13:19;;;;;;;0.80;0.80;;;;;;;25.56;58.97;98851.19;5072052;28;43841;-83
2023/08/09 11:15:48;;;;;;;1.93;0.60;;;;;;;25.58;59.91;98830.13;5071351;28;41591;-86
2023/08/09 11:18:16;;;;;;;0.50;0.50;;;;;;;25.99;58.36;98871.91;5071374;28;39843;-86
2023/08/09 11:20:44;;;;;;;0.63;0.63;;;;;;;25.97;57.46;98867.69;5078460;28;43338;-84
2023/08/09 11:23:13;;;;;;;0.80;0.70;;;;;;;25.84;57.59;98860.25;5073248;28;41856;-85
2023/08/09 11:25:40;;;;;;;0.67;0.40;;;;;;;25.89;57.57;98857.81;5072835;28;41682;-84
2023/08/09 11:28:13;;;;;;;0.63;0.60;;;;;;;26.10;57.76;98868.66;5073383;28;38909;-88
2023/08/09 11:30:41;;;;;;;0.50;0.50;;;;;;;26.43;57.46;98876.31;5073053;28;40837;-89
2023/08/09 11:33:11;;;;;;;0.57;0.50;;;;;;;26.66;57.28;98871.47;5124496;27;42789;-85
2023/08/09 11:35:43;;;;;;;0.73;0.50;;;;;;;26.72;55.61;98881.53;5089927;28;43205;-83
2023/08/09 11:38:13;;;;;;;2.10;1.00;;;;;;;26.82;55.32;98873.88;5072694;28;40093;-83
2023/08/09 11:40:43;;;;;;;0.40;0.40;;;;;;;27.01;56.18;98871.50;5072791;28;40606;-87